sensor_id;sensor_type;location;lat;lon;timestamp;P1;durP1;ratioP1;P2;durP2;ratioP2
10387;SDS011;5240;51.128;4.566;2024-03-02T00:02:23;1.20;;;1.10;;
10387;SDS011;5240;51.128;4.566;2024-03-02T00:04:51;1.00;;;1.00;;
10387;SDS011;5240;51.128;4.566;2024-03-02T00:07:18;0.90;;;0.90;;
10387;SDS011;5240;51.128;4.566;2024-03-02T00:09:46;1.05;;;1.05;;
10387;SDS011;5240;51.128;4.566;2024-03-02T00:12:15;1.27;;;1.00;;
10387;SDS011;5240;51.128;4.566;2024-03-02T00:14:42;1.95;;;1.20;;
10387;SDS011;5240;51.128;4.566;2024-03-02T00:17:13;1.25;;;1.10;;
10387;SDS011;5240;51.128;4.566;2024-03-02T00:19:45;1.05;;;1.00;;
10387;SDS011;5240;51.128;4.566;2024-03-02T00:22:12;1.00;;;1.00;;
10387;SDS011;5240;51.128;4.566;2024-03-02T00:24:40;1.30;;;1.20;;
10387;SDS011;5240;51.128;4.566;2024-03-02T00:27:07;1.20;;;1.02;;
10387;SDS011;5240;51.128;4.566;2024-03-02T00:29:38;0.90;;;0.90;;
10387;SDS011;5240;51.128;4.566;2024-03-02T00:32:08;1.92;;;1.00;;
10387;SDS011;5240;51.128;4.566;2024-03-02T00:34:37;1.38;;;1.13;;
10387;SDS011;5240;51.128;4.566;2024-03-02T00:37:05;1.38;;;1.25;;
10387;SDS011;5240;51.128;4.566;2024-03-02T00:39:32;1.20;;;1.10;;
10387;SDS011;5240;51.128;4.566;2024-03-02T00:41:59;1.13;;;1.02;;
10387;SDS011;5240;51.128;4.566;2024-03-02T00:44:27;0.80;;;0.80;;
10387;SDS011;5240;51.128;4.566;2024-03-02T00:46:57;2.00;;;0.98;;
10387;SDS011;5240;51.128;4.566;2024-03-02T00:49:26;1.48;;;0.88;;
10387;SDS011;5240;51.128;4.566;2024-03-02T00:51:53;0.95;;;0.90;;
10387;SDS011;5240;51.128;4.566;2024-03-02T00:54:21;0.63;;;0.63;;
10387;SDS011;5240;51.128;4.566;2024-03-02T00:56:49;0.93;;;0.93;;
10387;SDS011;5240;51.128;4.566;2024-03-02T00:59:17;0.90;;;0.88;;
10387;SDS011;5240;51.128;4.566;2024-03-02T01:01:44;0.85;;;0.70;;
10387;SDS011;5240;51.128;4.566;2024-03-02T01:04:12;0.80;;;0.80;;
10387;SDS011;5240;51.128;4.566;2024-03-02T01:06:40;1.00;;;0.90;;
10387;SDS011;5240;51.128;4.566;2024-03-02T01:09:07;2.25;;;0.90;;
10387;SDS011;5240;51.128;4.566;2024-03-02T01:11:35;0.85;;;0.85;;
10387;SDS011;5240;51.128;4.566;2024-03-02T01:14:02;0.80;;;0.80;;
10387;SDS011;5240;51.128;4.566;2024-03-02T01:16:29;0.80;;;0.75;;
10387;SDS011;5240;51.128;4.566;2024-03-02T01:18:57;1.40;;;0.70;;
10387;SDS011;5240;51.128;4.566;2024-03-02T01:21:25;1.70;;;0.90;;
10387;SDS011;5240;51.128;4.566;2024-03-02T01:23:53;0.95;;;0.90;;
10387;SDS011;5240;51.128;4.566;2024-03-02T01:26:20;0.50;;;0.50;;
10387;SDS011;5240;51.128;4.566;2024-03-02T01:28:47;0.90;;;0.90;;
10387;SDS011;5240;51.128;4.566;2024-03-02T01:31:14;0.90;;;0.80;;
10387;SDS011;5240;51.128;4.566;2024-03-02T01:33:42;0.80;;;0.68;;
10387;SDS011;5240;51.128;4.566;2024-03-02T01:36:09;0.75;;;0.70;;
10387;SDS011;5240;51.128;4.566;2024-03-02T01:38:37;0.88;;;0.88;;
10387;SDS011;5240;51.128;4.566;2024-03-02T01:41:05;1.17;;;0.95;;
10387;SDS011;5240;51.128;4.566;2024-03-02T01:43:32;0.65;;;0.65;;
10387;SDS011;5240;51.128;4.566;2024-03-02T01:45:59;0.50;;;0.50;;
10387;SDS011;5240;51.128;4.566;2024-03-02T01:48:27;1.13;;;1.02;;
10387;SDS011;5240;51.128;4.566;2024-03-02T01:50:54;1.15;;;0.80;;
10387;SDS011;5240;51.128;4.566;2024-03-02T01:53:21;0.75;;;0.70;;
10387;SDS011;5240;51.128;4.566;2024-03-02T01:55:50;0.95;;;0.70;;
10387;SDS011;5240;51.128;4.566;2024-03-02T01:58:17;0.80;;;0.80;;
10387;SDS011;5240;51.128;4.566;2024-03-02T02:00:45;0.88;;;0.85;;
10387;SDS011;5240;51.128;4.566;2024-03-02T02:03:13;1.02;;;0.50;;
10387;SDS011;5240;51.128;4.566;2024-03-02T02:05:41;0.70;;;0.60;;
10387;SDS011;5240;51.128;4.566;2024-03-02T02:08:09;0.73;;;0.70;;
10387;SDS011;5240;51.128;4.566;2024-03-02T02:10:36;1.60;;;0.80;;
10387;SDS011;5240;51.128;4.566;2024-03-02T02:13:05;0.80;;;0.80;;
10387;SDS011;5240;51.128;4.566;2024-03-02T02:15:33;1.05;;;0.70;;
10387;SDS011;5240;51.128;4.566;2024-03-02T02:18:01;0.70;;;0.70;;
10387;SDS011;5240;51.128;4.566;2024-03-02T02:20:29;0.90;;;0.77;;
10387;SDS011;5240;51.128;4.566;2024-03-02T02:22:58;0.93;;;0.63;;
10387;SDS011;5240;51.128;4.566;2024-03-02T02:25:25;0.85;;;0.80;;
10387;SDS011;5240;51.128;4.566;2024-03-02T02:27:53;1.13;;;0.80;;
10387;SDS011;5240;51.128;4.566;2024-03-02T02:30:21;0.82;;;0.82;;
10387;SDS011;5240;51.128;4.566;2024-03-02T02:32:48;0.70;;;0.70;;
10387;SDS011;5240;51.128;4.566;2024-03-02T02:35:16;1.10;;;0.77;;
10387;SDS011;5240;51.128;4.566;2024-03-02T02:37:43;2.03;;;0.90;;
10387;SDS011;5240;51.128;4.566;2024-03-02T02:40:13;1.65;;;0.75;;
10387;SDS011;5240;51.128;4.566;2024-03-02T02:42:40;0.80;;;0.80;;
10387;SDS011;5240;51.128;4.566;2024-03-02T02:45:08;1.85;;;1.00;;
10387;SDS011;5240;51.128;4.566;2024-03-02T02:47:36;2.05;;;1.05;;
10387;SDS011;5240;51.128;4.566;2024-03-02T02:50:03;0.68;;;0.68;;
10387;SDS011;5240;51.128;4.566;2024-03-02T02:52:31;1.00;;;1.00;;
10387;SDS011;5240;51.128;4.566;2024-03-02T02:55:01;2.65;;;0.82;;
10387;SDS011;5240;51.128;4.566;2024-03-02T02:57:30;0.85;;;0.85;;
10387;SDS011;5240;51.128;4.566;2024-03-02T03:00:00;1.30;;;0.75;;
10387;SDS011;5240;51.128;4.566;2024-03-02T03:02:30;1.60;;;0.90;;
10387;SDS011;5240;51.128;4.566;2024-03-02T03:04:57;1.15;;;0.93;;
10387;SDS011;5240;51.128;4.566;2024-03-02T03:07:25;0.93;;;0.82;;
10387;SDS011;5240;51.128;4.566;2024-03-02T03:09:52;1.48;;;1.00;;
10387;SDS011;5240;51.128;4.566;2024-03-02T03:12:20;2.95;;;1.00;;
10387;SDS011;5240;51.128;4.566;2024-03-02T03:14:48;1.77;;;0.80;;
10387;SDS011;5240;51.128;4.566;2024-03-02T03:17:15;1.80;;;0.90;;
10387;SDS011;5240;51.128;4.566;2024-03-02T03:19:44;2.08;;;1.23;;
10387;SDS011;5240;51.128;4.566;2024-03-02T03:22:11;3.03;;;1.05;;
10387;SDS011;5240;51.128;4.566;2024-03-02T03:24:39;5.88;;;1.42;;
10387;SDS011;5240;51.128;4.566;2024-03-02T03:27:06;2.80;;;1.20;;
10387;SDS011;5240;51.128;4.566;2024-03-02T03:29:33;1.20;;;0.82;;
10387;SDS011;5240;51.128;4.566;2024-03-02T03:32:02;1.23;;;0.90;;
10387;SDS011;5240;51.128;4.566;2024-03-02T03:34:32;2.55;;;0.80;;
10387;SDS011;5240;51.128;4.566;2024-03-02T03:36:59;1.90;;;1.13;;
10387;SDS011;5240;51.128;4.566;2024-03-02T03:39:26;1.20;;;1.02;;
10387;SDS011;5240;51.128;4.566;2024-03-02T03:41:54;2.15;;;0.90;;
10387;SDS011;5240;51.128;4.566;2024-03-02T03:44:21;1.75;;;1.20;;
10387;SDS011;5240;51.128;4.566;2024-03-02T03:46:48;1.33;;;1.00;;
10387;SDS011;5240;51.128;4.566;2024-03-02T03:49:17;2.28;;;0.90;;
10387;SDS011;5240;51.128;4.566;2024-03-02T03:51:44;4.00;;;1.10;;
10387;SDS011;5240;51.128;4.566;2024-03-02T03:54:11;4.57;;;1.10;;
10387;SDS011;5240;51.128;4.566;2024-03-02T03:56:39;1.65;;;0.90;;
10387;SDS011;5240;51.128;4.566;2024-03-02T03:59:06;2.25;;;1.00;;
10387;SDS011;5240;51.128;4.566;2024-03-02T04:01:33;1.95;;;0.80;;
10387;SDS011;5240;51.128;4.566;2024-03-02T04:04:00;1.88;;;1.08;;
10387;SDS011;5240;51.128;4.566;2024-03-02T04:06:30;1.70;;;1.23;;
10387;SDS011;5240;51.128;4.566;2024-03-02T04:08:57;1.73;;;0.95;;
10387;SDS011;5240;51.128;4.566;2024-03-02T04:11:24;1.40;;;1.10;;
10387;SDS011;5240;51.128;4.566;2024-03-02T04:13:52;1.20;;;1.08;;
10387;SDS011;5240;51.128;4.566;2024-03-02T04:16:19;4.20;;;1.00;;
10387;SDS011;5240;51.128;4.566;2024-03-02T04:18:46;3.00;;;0.93;;
10387;SDS011;5240;51.128;4.566;2024-03-02T04:21:13;1.80;;;0.90;;
10387;SDS011;5240;51.128;4.566;2024-03-02T04:23:42;2.05;;;1.17;;
10387;SDS011;5240;51.128;4.566;2024-03-02T04:26:08;2.10;;;1.20;;
10387;SDS011;5240;51.128;4.566;2024-03-02T04:28:35;1.98;;;0.88;;
10387;SDS011;5240;51.128;4.566;2024-03-02T04:31:03;1.42;;;0.90;;
10387;SDS011;5240;51.128;4.566;2024-03-02T04:33:30;1.80;;;0.90;;
10387;SDS011;5240;51.128;4.566;2024-03-02T04:35:57;1.45;;;0.93;;
10387;SDS011;5240;51.128;4.566;2024-03-02T04:38:24;1.83;;;0.90;;
10387;SDS011;5240;51.128;4.566;2024-03-02T04:40:53;2.55;;;1.13;;
10387;SDS011;5240;51.128;4.566;2024-03-02T04:43:20;2.58;;;1.00;;
10387;SDS011;5240;51.128;4.566;2024-03-02T04:45:47;3.22;;;1.00;;
10387;SDS011;5240;51.128;4.566;2024-03-02T04:48:15;3.97;;;1.13;;
10387;SDS011;5240;51.128;4.566;2024-03-02T04:50:42;1.48;;;0.90;;
10387;SDS011;5240;51.128;4.566;2024-03-02T04:53:09;2.20;;;1.30;;
10387;SDS011;5240;51.128;4.566;2024-03-02T04:55:37;4.78;;;0.93;;
10387;SDS011;5240;51.128;4.566;2024-03-02T04:58:46;2.08;;;1.13;;
10387;SDS011;5240;51.128;4.566;2024-03-02T05:01:13;2.90;;;1.13;;
10387;SDS011;5240;51.128;4.566;2024-03-02T05:03:41;2.83;;;1.40;;
10387;SDS011;5240;51.128;4.566;2024-03-02T05:06:09;1.27;;;1.05;;
10387;SDS011;5240;51.128;4.566;2024-03-02T05:08:36;2.67;;;1.00;;
10387;SDS011;5240;51.128;4.566;2024-03-02T05:11:03;4.38;;;1.20;;
10387;SDS011;5240;51.128;4.566;2024-03-02T05:13:45;1.98;;;1.00;;
10387;SDS011;5240;51.128;4.566;2024-03-02T05:16:13;2.05;;;1.25;;
10387;SDS011;5240;51.128;4.566;2024-03-02T05:18:40;1.67;;;1.08;;
10387;SDS011;5240;51.128;4.566;2024-03-02T05:21:07;2.17;;;1.05;;
10387;SDS011;5240;51.128;4.566;2024-03-02T05:23:34;2.60;;;1.23;;
10387;SDS011;5240;51.128;4.566;2024-03-02T05:26:02;2.53;;;1.17;;
10387;SDS011;5240;51.128;4.566;2024-03-02T05:28:29;1.10;;;0.90;;
10387;SDS011;5240;51.128;4.566;2024-03-02T05:30:58;2.35;;;1.02;;
10387;SDS011;5240;51.128;4.566;2024-03-02T05:33:25;2.72;;;1.13;;
10387;SDS011;5240;51.128;4.566;2024-03-02T05:35:53;1.60;;;0.90;;
10387;SDS011;5240;51.128;4.566;2024-03-02T05:38:20;4.97;;;1.50;;
10387;SDS011;5240;51.128;4.566;2024-03-02T05:40:48;1.95;;;1.23;;
10387;SDS011;5240;51.128;4.566;2024-03-02T05:43:15;2.70;;;1.30;;
10387;SDS011;5240;51.128;4.566;2024-03-02T05:45:43;1.67;;;0.95;;
10387;SDS011;5240;51.128;4.566;2024-03-02T05:48:12;3.15;;;1.10;;
10387;SDS011;5240;51.128;4.566;2024-03-02T05:50:41;2.10;;;1.02;;
10387;SDS011;5240;51.128;4.566;2024-03-02T05:53:09;1.70;;;1.20;;
10387;SDS011;5240;51.128;4.566;2024-03-02T05:55:36;3.92;;;1.35;;
10387;SDS011;5240;51.128;4.566;2024-03-02T05:58:03;1.45;;;1.00;;
10387;SDS011;5240;51.128;4.566;2024-03-02T06:00:47;2.25;;;1.05;;
10387;SDS011;5240;51.128;4.566;2024-03-02T06:03:16;1.67;;;1.33;;
10387;SDS011;5240;51.128;4.566;2024-03-02T06:05:43;4.30;;;1.23;;
10387;SDS011;5240;51.128;4.566;2024-03-02T06:08:11;3.83;;;1.20;;
10387;SDS011;5240;51.128;4.566;2024-03-02T06:10:38;3.88;;;1.02;;
10387;SDS011;5240;51.128;4.566;2024-03-02T06:13:05;3.67;;;1.10;;
10387;SDS011;5240;51.128;4.566;2024-03-02T06:15:32;3.80;;;1.35;;
10387;SDS011;5240;51.128;4.566;2024-03-02T06:18:01;4.00;;;1.33;;
10387;SDS011;5240;51.128;4.566;2024-03-02T06:20:29;5.15;;;1.10;;
10387;SDS011;5240;51.128;4.566;2024-03-02T06:22:57;3.38;;;1.50;;
10387;SDS011;5240;51.128;4.566;2024-03-02T06:25:24;1.70;;;1.38;;
10387;SDS011;5240;51.128;4.566;2024-03-02T06:27:51;4.18;;;1.52;;
10387;SDS011;5240;51.128;4.566;2024-03-02T06:30:18;3.97;;;1.67;;
10387;SDS011;5240;51.128;4.566;2024-03-02T06:32:46;9.70;;;4.82;;
10387;SDS011;5240;51.128;4.566;2024-03-02T06:35:13;2.90;;;1.63;;
10387;SDS011;5240;51.128;4.566;2024-03-02T06:37:41;2.53;;;1.20;;
10387;SDS011;5240;51.128;4.566;2024-03-02T06:40:09;2.10;;;1.30;;
10387;SDS011;5240;51.128;4.566;2024-03-02T06:42:36;4.65;;;1.30;;
10387;SDS011;5240;51.128;4.566;2024-03-02T06:45:04;2.63;;;1.40;;
10387;SDS011;5240;51.128;4.566;2024-03-02T06:47:31;5.75;;;1.35;;
10387;SDS011;5240;51.128;4.566;2024-03-02T06:49:58;3.95;;;1.40;;
10387;SDS011;5240;51.128;4.566;2024-03-02T06:52:26;2.38;;;1.25;;
10387;SDS011;5240;51.128;4.566;2024-03-02T06:54:54;1.98;;;1.30;;
10387;SDS011;5240;51.128;4.566;2024-03-02T06:57:21;3.90;;;1.35;;
10387;SDS011;5240;51.128;4.566;2024-03-02T06:59:49;2.58;;;1.38;;
10387;SDS011;5240;51.128;4.566;2024-03-02T07:02:19;4.25;;;1.20;;
10387;SDS011;5240;51.128;4.566;2024-03-02T07:04:48;7.35;;;1.70;;
10387;SDS011;5240;51.128;4.566;2024-03-02T07:07:16;3.38;;;1.20;;
10387;SDS011;5240;51.128;4.566;2024-03-02T07:09:43;4.05;;;1.40;;
10387;SDS011;5240;51.128;4.566;2024-03-02T07:12:12;1.90;;;0.98;;
10387;SDS011;5240;51.128;4.566;2024-03-02T07:14:39;4.43;;;1.70;;
10387;SDS011;5240;51.128;4.566;2024-03-02T07:17:37;3.78;;;1.70;;
10387;SDS011;5240;51.128;4.566;2024-03-02T07:20:05;3.08;;;1.77;;
10387;SDS011;5240;51.128;4.566;2024-03-02T07:22:33;4.28;;;1.48;;
10387;SDS011;5240;51.128;4.566;2024-03-02T07:25:00;3.05;;;1.30;;
10387;SDS011;5240;51.128;4.566;2024-03-02T07:27:30;3.22;;;1.50;;
10387;SDS011;5240;51.128;4.566;2024-03-02T07:29:58;4.05;;;1.48;;
10387;SDS011;5240;51.128;4.566;2024-03-02T07:32:26;4.30;;;1.65;;
10387;SDS011;5240;51.128;4.566;2024-03-02T07:34:53;6.53;;;1.60;;
10387;SDS011;5240;51.128;4.566;2024-03-02T07:37:20;3.97;;;1.40;;
10387;SDS011;5240;51.128;4.566;2024-03-02T07:39:48;2.75;;;1.40;;
10387;SDS011;5240;51.128;4.566;2024-03-02T07:42:15;3.28;;;1.40;;
10387;SDS011;5240;51.128;4.566;2024-03-02T07:44:44;4.07;;;1.42;;
10387;SDS011;5240;51.128;4.566;2024-03-02T07:47:12;6.30;;;1.42;;
10387;SDS011;5240;51.128;4.566;2024-03-02T07:49:39;2.13;;;1.40;;
10387;SDS011;5240;51.128;4.566;2024-03-02T07:52:06;2.95;;;1.35;;
10387;SDS011;5240;51.128;4.566;2024-03-02T07:54:34;4.80;;;1.42;;
10387;SDS011;5240;51.128;4.566;2024-03-02T07:57:01;3.20;;;1.30;;
10387;SDS011;5240;51.128;4.566;2024-03-02T07:59:28;3.33;;;1.70;;
10387;SDS011;5240;51.128;4.566;2024-03-02T08:01:57;3.75;;;1.38;;
10387;SDS011;5240;51.128;4.566;2024-03-02T08:04:25;4.95;;;1.60;;
10387;SDS011;5240;51.128;4.566;2024-03-02T08:06:53;4.80;;;1.70;;
10387;SDS011;5240;51.128;4.566;2024-03-02T08:09:20;5.15;;;1.60;;
10387;SDS011;5240;51.128;4.566;2024-03-02T08:11:48;3.40;;;1.38;;
10387;SDS011;5240;51.128;4.566;2024-03-02T08:14:15;3.88;;;1.45;;
10387;SDS011;5240;51.128;4.566;2024-03-02T08:16:42;5.32;;;1.70;;
10387;SDS011;5240;51.128;4.566;2024-03-02T08:19:11;4.35;;;1.52;;
10387;SDS011;5240;51.128;4.566;2024-03-02T08:21:38;4.75;;;1.52;;
10387;SDS011;5240;51.128;4.566;2024-03-02T08:24:06;5.00;;;1.50;;
10387;SDS011;5240;51.128;4.566;2024-03-02T08:26:33;5.22;;;1.65;;
10387;SDS011;5240;51.128;4.566;2024-03-02T08:29:01;2.50;;;1.40;;
10387;SDS011;5240;51.128;4.566;2024-03-02T08:31:28;4.18;;;1.75;;
10387;SDS011;5240;51.128;4.566;2024-03-02T08:33:56;4.68;;;1.70;;
10387;SDS011;5240;51.128;4.566;2024-03-02T08:36:25;5.18;;;1.55;;
10387;SDS011;5240;51.128;4.566;2024-03-02T08:38:52;4.63;;;1.40;;
10387;SDS011;5240;51.128;4.566;2024-03-02T08:41:19;5.07;;;1.58;;
10387;SDS011;5240;51.128;4.566;2024-03-02T08:43:47;3.47;;;1.55;;
10387;SDS011;5240;51.128;4.566;2024-03-02T08:46:14;5.60;;;1.73;;
10387;SDS011;5240;51.128;4.566;2024-03-02T08:48:41;4.47;;;1.40;;
10387;SDS011;5240;51.128;4.566;2024-03-02T08:51:08;4.28;;;1.48;;
10387;SDS011;5240;51.128;4.566;2024-03-02T08:53:37;3.95;;;1.60;;
10387;SDS011;5240;51.128;4.566;2024-03-02T08:56:05;3.05;;;1.48;;
10387;SDS011;5240;51.128;4.566;2024-03-02T08:58:32;4.32;;;1.73;;
10387;SDS011;5240;51.128;4.566;2024-03-02T09:01:00;4.20;;;1.70;;
10387;SDS011;5240;51.128;4.566;2024-03-02T09:03:27;5.00;;;1.70;;
10387;SDS011;5240;51.128;4.566;2024-03-02T09:05:54;3.65;;;1.50;;
10387;SDS011;5240;51.128;4.566;2024-03-02T09:08:21;8.10;;;1.77;;
10387;SDS011;5240;51.128;4.566;2024-03-02T09:10:50;6.25;;;1.80;;
10387;SDS011;5240;51.128;4.566;2024-03-02T09:13:17;4.10;;;1.95;;
10387;SDS011;5240;51.128;4.566;2024-03-02T09:15:45;5.95;;;2.15;;
10387;SDS011;5240;51.128;4.566;2024-03-02T09:18:12;5.63;;;2.60;;
10387;SDS011;5240;51.128;4.566;2024-03-02T09:20:40;5.68;;;2.00;;
10387;SDS011;5240;51.128;4.566;2024-03-02T09:23:07;6.97;;;1.92;;
10387;SDS011;5240;51.128;4.566;2024-03-02T09:25:35;5.50;;;2.13;;
10387;SDS011;5240;51.128;4.566;2024-03-02T09:28:04;6.72;;;1.80;;
10387;SDS011;5240;51.128;4.566;2024-03-02T09:30:32;5.25;;;1.73;;
10387;SDS011;5240;51.128;4.566;2024-03-02T09:32:59;4.10;;;1.30;;
10387;SDS011;5240;51.128;4.566;2024-03-02T09:35:26;4.63;;;1.48;;
10387;SDS011;5240;51.128;4.566;2024-03-02T09:37:54;3.63;;;1.80;;
10387;SDS011;5240;51.128;4.566;2024-03-02T09:40:22;4.15;;;1.67;;
10387;SDS011;5240;51.128;4.566;2024-03-02T09:42:49;4.05;;;1.75;;
10387;SDS011;5240;51.128;4.566;2024-03-02T09:45:19;3.75;;;1.80;;
10387;SDS011;5240;51.128;4.566;2024-03-02T09:47:49;7.35;;;1.90;;
10387;SDS011;5240;51.128;4.566;2024-03-02T09:50:16;4.55;;;1.73;;
10387;SDS011;5240;51.128;4.566;2024-03-02T09:52:44;6.78;;;1.67;;
10387;SDS011;5240;51.128;4.566;2024-03-02T09:55:11;7.32;;;1.67;;
10387;SDS011;5240;51.128;4.566;2024-03-02T09:57:38;3.85;;;1.83;;
10387;SDS011;5240;51.128;4.566;2024-03-02T10:00:07;3.35;;;1.75;;
10387;SDS011;5240;51.128;4.566;2024-03-02T10:02:41;6.95;;;2.20;;
10387;SDS011;5240;51.128;4.566;2024-03-02T10:05:08;5.15;;;1.67;;
10387;SDS011;5240;51.128;4.566;2024-03-02T10:07:36;4.47;;;1.70;;
10387;SDS011;5240;51.128;4.566;2024-03-02T10:10:12;6.47;;;1.83;;
10387;SDS011;5240;51.128;4.566;2024-03-02T10:12:40;6.68;;;2.00;;
10387;SDS011;5240;51.128;4.566;2024-03-02T10:15:07;5.43;;;1.70;;
10387;SDS011;5240;51.128;4.566;2024-03-02T10:17:35;5.95;;;2.00;;
10387;SDS011;5240;51.128;4.566;2024-03-02T10:20:23;7.15;;;1.70;;
10387;SDS011;5240;51.128;4.566;2024-03-02T10:22:50;3.78;;;1.52;;
10387;SDS011;5240;51.128;4.566;2024-03-02T10:25:30;5.05;;;1.90;;
10387;SDS011;5240;51.128;4.566;2024-03-02T10:27:58;4.65;;;1.63;;
10387;SDS011;5240;51.128;4.566;2024-03-02T10:30:25;4.72;;;1.52;;
10387;SDS011;5240;51.128;4.566;2024-03-02T10:32:53;5.03;;;1.95;;
10387;SDS011;5240;51.128;4.566;2024-03-02T10:35:22;7.10;;;2.08;;
10387;SDS011;5240;51.128;4.566;2024-03-02T10:37:51;5.78;;;1.73;;
10387;SDS011;5240;51.128;4.566;2024-03-02T10:40:21;4.60;;;1.92;;
10387;SDS011;5240;51.128;4.566;2024-03-02T10:42:49;8.40;;;2.10;;
10387;SDS011;5240;51.128;4.566;2024-03-02T10:45:17;5.57;;;1.92;;
10387;SDS011;5240;51.128;4.566;2024-03-02T10:47:46;6.78;;;1.80;;
10387;SDS011;5240;51.128;4.566;2024-03-02T10:50:13;5.93;;;1.90;;
10387;SDS011;5240;51.128;4.566;2024-03-02T10:52:42;6.00;;;1.70;;
10387;SDS011;5240;51.128;4.566;2024-03-02T10:55:09;4.82;;;1.67;;
10387;SDS011;5240;51.128;4.566;2024-03-02T10:57:40;5.35;;;1.40;;
10387;SDS011;5240;51.128;4.566;2024-03-02T11:00:11;5.97;;;1.80;;
10387;SDS011;5240;51.128;4.566;2024-03-02T11:02:40;5.22;;;1.70;;
10387;SDS011;5240;51.128;4.566;2024-03-02T11:05:08;6.07;;;1.70;;
10387;SDS011;5240;51.128;4.566;2024-03-02T11:07:37;8.43;;;1.95;;
10387;SDS011;5240;51.128;4.566;2024-03-02T11:10:07;4.95;;;1.60;;
10387;SDS011;5240;51.128;4.566;2024-03-02T11:12:36;4.85;;;2.10;;
10387;SDS011;5240;51.128;4.566;2024-03-02T11:15:08;3.47;;;1.52;;
10387;SDS011;5240;51.128;4.566;2024-03-02T11:17:36;3.28;;;1.45;;
10387;SDS011;5240;51.128;4.566;2024-03-02T11:20:05;6.70;;;1.90;;
10387;SDS011;5240;51.128;4.566;2024-03-02T11:22:34;3.35;;;1.50;;
10387;SDS011;5240;51.128;4.566;2024-03-02T11:25:01;6.05;;;2.00;;
10387;SDS011;5240;51.128;4.566;2024-03-02T11:30:24;6.03;;;1.60;;
10387;SDS011;5240;51.128;4.566;2024-03-02T11:33:12;3.35;;;1.25;;
10387;SDS011;5240;51.128;4.566;2024-03-02T11:35:41;5.60;;;1.30;;
10387;SDS011;5240;51.128;4.566;2024-03-02T11:38:08;6.43;;;2.03;;
10387;SDS011;5240;51.128;4.566;2024-03-02T11:40:36;6.78;;;1.85;;
10387;SDS011;5240;51.128;4.566;2024-03-02T11:43:05;6.53;;;2.30;;
10387;SDS011;5240;51.128;4.566;2024-03-02T11:45:35;5.78;;;1.58;;
10387;SDS011;5240;51.128;4.566;2024-03-02T11:48:05;4.60;;;1.63;;
10387;SDS011;5240;51.128;4.566;2024-03-02T11:50:33;7.88;;;2.15;;
10387;SDS011;5240;51.128;4.566;2024-03-02T11:53:02;5.88;;;2.42;;
10387;SDS011;5240;51.128;4.566;2024-03-02T11:55:33;4.10;;;2.20;;
10387;SDS011;5240;51.128;4.566;2024-03-02T11:58:01;4.38;;;1.50;;
10387;SDS011;5240;51.128;4.566;2024-03-02T12:00:29;6.43;;;1.58;;
10387;SDS011;5240;51.128;4.566;2024-03-02T12:03:00;4.95;;;1.60;;
10387;SDS011;5240;51.128;4.566;2024-03-02T12:05:28;3.83;;;1.50;;
10387;SDS011;5240;51.128;4.566;2024-03-02T12:07:56;6.53;;;1.60;;
10387;SDS011;5240;51.128;4.566;2024-03-02T12:10:23;7.00;;;2.20;;
10387;SDS011;5240;51.128;4.566;2024-03-02T12:12:55;5.90;;;1.52;;
10387;SDS011;5240;51.128;4.566;2024-03-02T12:15:23;4.85;;;1.70;;
10387;SDS011;5240;51.128;4.566;2024-03-02T12:17:52;5.35;;;1.70;;
10387;SDS011;5240;51.128;4.566;2024-03-02T12:20:21;3.90;;;1.85;;
10387;SDS011;5240;51.128;4.566;2024-03-02T12:22:49;5.53;;;1.58;;
10387;SDS011;5240;51.128;4.566;2024-03-02T12:25:17;4.32;;;1.70;;
10387;SDS011;5240;51.128;4.566;2024-03-02T12:27:45;3.05;;;1.33;;
10387;SDS011;5240;51.128;4.566;2024-03-02T12:30:12;6.82;;;1.80;;
10387;SDS011;5240;51.128;4.566;2024-03-02T12:32:40;3.03;;;1.45;;
10387;SDS011;5240;51.128;4.566;2024-03-02T12:35:07;4.53;;;1.55;;
10387;SDS011;5240;51.128;4.566;2024-03-02T12:37:43;6.25;;;1.75;;
10387;SDS011;5240;51.128;4.566;2024-03-02T12:40:10;4.38;;;1.40;;
10387;SDS011;5240;51.128;4.566;2024-03-02T12:42:38;7.40;;;2.00;;
10387;SDS011;5240;51.128;4.566;2024-03-02T12:45:05;3.63;;;1.70;;
10387;SDS011;5240;51.128;4.566;2024-03-02T12:47:33;5.32;;;1.67;;
10387;SDS011;5240;51.128;4.566;2024-03-02T12:50:00;4.88;;;1.77;;
10387;SDS011;5240;51.128;4.566;2024-03-02T12:52:28;5.35;;;1.80;;
10387;SDS011;5240;51.128;4.566;2024-03-02T12:54:57;3.20;;;1.67;;
10387;SDS011;5240;51.128;4.566;2024-03-02T12:57:27;6.22;;;2.08;;
10387;SDS011;5240;51.128;4.566;2024-03-02T12:59:57;4.53;;;1.80;;
10387;SDS011;5240;51.128;4.566;2024-03-02T13:02:27;3.45;;;1.70;;
10387;SDS011;5240;51.128;4.566;2024-03-02T13:04:55;4.35;;;1.75;;
10387;SDS011;5240;51.128;4.566;2024-03-02T13:07:23;3.60;;;1.80;;
10387;SDS011;5240;51.128;4.566;2024-03-02T13:09:50;3.92;;;1.63;;
10387;SDS011;5240;51.128;4.566;2024-03-02T13:12:19;5.90;;;1.77;;
10387;SDS011;5240;51.128;4.566;2024-03-02T13:14:48;6.10;;;1.80;;
10387;SDS011;5240;51.128;4.566;2024-03-02T13:17:17;3.78;;;1.65;;
10387;SDS011;5240;51.128;4.566;2024-03-02T13:19:51;6.50;;;3.33;;
10387;SDS011;5240;51.128;4.566;2024-03-02T13:22:19;3.35;;;1.30;;
10387;SDS011;5240;51.128;4.566;2024-03-02T13:24:46;5.22;;;1.70;;
10387;SDS011;5240;51.128;4.566;2024-03-02T13:27:13;2.80;;;1.20;;
10387;SDS011;5240;51.128;4.566;2024-03-02T13:29:42;4.68;;;1.50;;
10387;SDS011;5240;51.128;4.566;2024-03-02T13:32:10;5.50;;;1.35;;
10387;SDS011;5240;51.128;4.566;2024-03-02T13:34:37;3.63;;;1.60;;
10387;SDS011;5240;51.128;4.566;2024-03-02T13:37:04;2.45;;;1.40;;
10387;SDS011;5240;51.128;4.566;2024-03-02T13:39:31;4.07;;;1.50;;
10387;SDS011;5240;51.128;4.566;2024-03-02T13:42:04;3.30;;;1.40;;
10387;SDS011;5240;51.128;4.566;2024-03-02T13:44:33;4.68;;;1.30;;
10387;SDS011;5240;51.128;4.566;2024-03-02T13:47:02;2.40;;;1.30;;
10387;SDS011;5240;51.128;4.566;2024-03-02T13:49:30;2.88;;;1.30;;
10387;SDS011;5240;51.128;4.566;2024-03-02T13:52:01;2.45;;;1.40;;
10387;SDS011;5240;51.128;4.566;2024-03-02T13:54:36;2.42;;;1.63;;
10387;SDS011;5240;51.128;4.566;2024-03-02T13:57:04;5.07;;;1.42;;
10387;SDS011;5240;51.128;4.566;2024-03-02T13:59:31;4.32;;;1.20;;
10387;SDS011;5240;51.128;4.566;2024-03-02T14:01:59;4.68;;;1.50;;
10387;SDS011;5240;51.128;4.566;2024-03-02T14:04:28;6.50;;;1.60;;
10387;SDS011;5240;51.128;4.566;2024-03-02T14:06:55;5.15;;;1.55;;
10387;SDS011;5240;51.128;4.566;2024-03-02T14:09:22;4.75;;;1.52;;
10387;SDS011;5240;51.128;4.566;2024-03-02T14:11:50;5.97;;;1.73;;
10387;SDS011;5240;51.128;4.566;2024-03-02T14:14:17;3.70;;;1.60;;
10387;SDS011;5240;51.128;4.566;2024-03-02T14:16:44;2.60;;;1.30;;
10387;SDS011;5240;51.128;4.566;2024-03-02T14:19:12;3.85;;;1.40;;
10387;SDS011;5240;51.128;4.566;2024-03-02T14:21:41;4.18;;;1.58;;
10387;SDS011;5240;51.128;4.566;2024-03-02T14:24:08;4.88;;;1.40;;
10387;SDS011;5240;51.128;4.566;2024-03-02T14:26:36;2.17;;;1.10;;
10387;SDS011;5240;51.128;4.566;2024-03-02T14:29:04;2.47;;;1.30;;
10387;SDS011;5240;51.128;4.566;2024-03-02T14:31:31;4.95;;;1.60;;
10387;SDS011;5240;51.128;4.566;2024-03-02T14:33:59;3.60;;;1.35;;
10387;SDS011;5240;51.128;4.566;2024-03-02T14:36:26;3.58;;;1.70;;
10387;SDS011;5240;51.128;4.566;2024-03-02T14:38:55;5.03;;;1.50;;
10387;SDS011;5240;51.128;4.566;2024-03-02T14:41:22;3.80;;;1.40;;
10387;SDS011;5240;51.128;4.566;2024-03-02T14:43:50;1.95;;;1.20;;
10387;SDS011;5240;51.128;4.566;2024-03-02T14:46:17;3.08;;;1.38;;
10387;SDS011;5240;51.128;4.566;2024-03-02T14:48:45;4.03;;;1.60;;
10387;SDS011;5240;51.128;4.566;2024-03-02T14:51:14;2.83;;;1.30;;
10387;SDS011;5240;51.128;4.566;2024-03-02T14:53:41;4.28;;;1.50;;
10387;SDS011;5240;51.128;4.566;2024-03-02T14:56:10;1.85;;;1.30;;
10387;SDS011;5240;51.128;4.566;2024-03-02T14:58:38;2.85;;;1.08;;
10387;SDS011;5240;51.128;4.566;2024-03-02T15:01:06;3.00;;;1.40;;
10387;SDS011;5240;51.128;4.566;2024-03-02T15:03:34;4.22;;;1.55;;
10387;SDS011;5240;51.128;4.566;2024-03-02T15:06:02;4.03;;;1.52;;
10387;SDS011;5240;51.128;4.566;2024-03-02T15:08:29;5.40;;;1.70;;
10387;SDS011;5240;51.128;4.566;2024-03-02T15:10:56;1.98;;;1.30;;